This is the latest recevied weather packets stored in our database for station/object HP3ICC-24. If no packets are shown the sender has not sent any weather packets the latest 10 day(s).
| Time | Temp. | Humidity | Pressure | Rain* | Wind** | Luminosity | Snow |
|---|---|---|---|---|---|---|---|
| 1777931006 | 19.44° C | 77% | 1011 hPa | 0 mm | - | - | - |
| 1777930946 | 19.44° C | 77% | 1011 hPa | 0 mm | - | - | - |
| 1777929806 | 20° C | 75% | 1011 hPa | 0.25 mm | - | - | - |
| 1777929745 | 20° C | 75% | 1011 hPa | 0.25 mm | - | - | - |
| 1777928605 | 20.56° C | 74% | 1011 hPa | 0 mm | - | - | - |
| 1777928545 | 20.56° C | 74% | 1011 hPa | 0 mm | - | - | - |
| 1777927405 | 20° C | 73% | 1011 hPa | 0 mm | - | - | - |
| 1777927344 | 20° C | 73% | 1011 hPa | 0 mm | - | - | - |
| 1777926204 | 21.11° C | 68% | 1011 hPa | 0 mm | - | - | - |
| 1777926144 | 21.11° C | 68% | 1011 hPa | 0 mm | - | - | - |
| 1777925004 | 21.11° C | 67% | 1011 hPa | 0 mm | - | - | - |
| 1777924944 | 21.11° C | 67% | 1011 hPa | 0 mm | - | - | - |
| 1777923803 | 21.67° C | 65% | 1011 hPa | 0 mm | - | - | - |
| 1777923743 | 21.67° C | 65% | 1011 hPa | 0 mm | - | - | - |
| 1777922603 | 22.78° C | 60% | 1011 hPa | 0 mm | - | - | - |
| 1777922543 | 22.78° C | 60% | 1011 hPa | 0 mm | - | - | - |
| 1777921402 | 22.78° C | 59% | 1011 hPa | 0 mm | - | - | - |
| 1777921342 | 22.78° C | 59% | 1011 hPa | 0 mm | - | - | - |
| 1777920202 | 23.33° C | 57% | 1011 hPa | 0 mm | - | - | - |
| 1777920142 | 23.33° C | 57% | 1011 hPa | 0 mm | - | - | - |
| 1777919001 | 23.33° C | 59% | 1012 hPa | 0 mm | - | - | - |
| 1777918941 | 23.33° C | 59% | 1012 hPa | 0 mm | - | - | - |
| 1777917801 | 23.89° C | 56% | 1012 hPa | 0 mm | - | - | - |
| 1777917741 | 23.89° C | 56% | 1012 hPa | 0 mm | - | - | - |
| 1777916600 | 23.89° C | 57% | 1012 hPa | 0 mm | - | - | - |
* Rain latest hour (hover to see other rain measurements)
** Current wind speed in m/s (hover to see current wind gust speed)